Calhoun, GA (30701)

07:49 PM EST del 22 Dicembre 2014 (GMT -0500)
The Villages of Calhoun | Change Station
CLOSE
Current Station
Stazione meteo personale
Location: Calhoun, GA
Altitudine: 676 ft
Stazioni meteo nelle vicinanze

Alt. 676 ft 34.50 °N, 84.93 °W | Updated 4 minutes ago

Pioggia
Pioggia
45.8 °F
Sembra 46 °F
N
1.0
Vento Variabile Vento da SO
Gusts 9.0 mph

Oggi
Massima -- | Minima -- °F
--% Possibilità di precip.
Ieri
Massima -- | Minima -- °F
Precip. -- in
7:43 AM 5:33 PM
Luna nuova, 1% visible
Pressione 29.87 in
Visibilità 10.0 miglia
Nuvole Nubi sparse 500 ft
Nubi sparse 1000 ft
Coperto 2600 ft
Raffreddamento del vento 46 °F
Punto di rugiada 44 °F
Umidità 95%
Piovosità 0.10 in
Spessore del manto nevoso Non disponibile.
Raggi UV 0 fuori da 12
Polline .30 fuori da 12
Qualità dell'aria Non disponibile.
Flu Activity Non disponibile.
METAR KDNN 230035Z AUTO 20005KT 10SM RA SCT005 SCT010 OVC026 07/07 A2987 RMK AO2

More Conditions Fewer Conditions

Pressione 29.87 in
Visibilità 10.0 miglia
Nuvole Nubi sparse 500 ft
Nubi sparse 1000 ft
Coperto 2600 ft
Raffreddamento del vento 46 °F
Punto di rugiada 44 °F
Umidità 95%
Piovosità 0.10 in
Spessore del manto nevoso Non disponibile.
Raggi UV 0 fuori da 12
Polline .30 fuori da 12
Qualità dell'aria Non disponibile.
Flu Activity Non disponibile.
METAR KDNN 230035Z AUTO 20005KT 10SM RA SCT005 SCT010 OVC026 07/07 A2987 RMK AO2

More Conditions Fewer Conditions

10-Day Weather Forecast

Almanac

Astronomia

Dec. 22, 2014 Alba Tramonto
Ora attuale
Crepuscolo civile
Crepuscolo nautico
Crepuscolo astronomico
Luna
Estensione della luce visibile
Lunghezza del giorno
Tomorrow will be .
, % of the Moon is Illuminated

Gli estremi di oggi

State Highs State Lows

Community

WunderPhotos

Upload Photos

1,779,740 foto caricate!

WunderBlogs® & News

Nearby

Qualità dell'aria

  Qualità dell'aria Indice AQ Inquinante
Not available.

Profondità neve

Stazione Profondità Altitudine

Attività sismica

Città  Distanza Mag. Data & Ora
Minimo Magnitudo Mostrato è 2.5.

Temperature delle acque costiere

Località Temperatura

Stazioni meteo nelle vicinanze